sensor_id;sensor_type;location;lat;lon;timestamp;P1;durP1;ratioP1;P2;durP2;ratioP2
34278;SDS011;20538;51.528;9.942;2023-02-18T00:02:12;9.07;;;2.05;;
34278;SDS011;20538;51.528;9.942;2023-02-18T00:04:38;13.98;;;2.05;;
34278;SDS011;20538;51.528;9.942;2023-02-18T00:07:03;9.93;;;2.10;;
34278;SDS011;20538;51.528;9.942;2023-02-18T00:09:29;12.63;;;1.88;;
34278;SDS011;20538;51.528;9.942;2023-02-18T00:11:54;9.88;;;1.95;;
34278;SDS011;20538;51.528;9.942;2023-02-18T00:14:20;8.57;;;2.00;;
34278;SDS011;20538;51.528;9.942;2023-02-18T00:16:46;10.30;;;2.10;;
34278;SDS011;20538;51.528;9.942;2023-02-18T00:19:13;10.63;;;1.88;;
34278;SDS011;20538;51.528;9.942;2023-02-18T00:21:42;10.13;;;2.05;;
34278;SDS011;20538;51.528;9.942;2023-02-18T00:24:08;15.45;;;2.75;;
34278;SDS011;20538;51.528;9.942;2023-02-18T00:26:35;9.95;;;2.17;;
34278;SDS011;20538;51.528;9.942;2023-02-18T00:29:01;9.43;;;1.95;;
34278;SDS011;20538;51.528;9.942;2023-02-18T00:31:31;10.85;;;2.17;;
34278;SDS011;20538;51.528;9.942;2023-02-18T00:33:59;7.60;;;1.65;;
34278;SDS011;20538;51.528;9.942;2023-02-18T00:36:25;12.20;;;2.50;;
34278;SDS011;20538;51.528;9.942;2023-02-18T00:38:53;11.85;;;2.20;;
34278;SDS011;20538;51.528;9.942;2023-02-18T00:41:20;7.93;;;2.53;;
34278;SDS011;20538;51.528;9.942;2023-02-18T00:43:47;11.35;;;2.83;;
34278;SDS011;20538;51.528;9.942;2023-02-18T00:46:12;12.48;;;2.53;;
34278;SDS011;20538;51.528;9.942;2023-02-18T00:48:39;9.57;;;2.38;;
34278;SDS011;20538;51.528;9.942;2023-02-18T00:51:05;8.55;;;1.98;;
34278;SDS011;20538;51.528;9.942;2023-02-18T00:53:32;5.40;;;1.67;;
34278;SDS011;20538;51.528;9.942;2023-02-18T00:55:59;13.82;;;2.75;;
34278;SDS011;20538;51.528;9.942;2023-02-18T00:58:25;8.40;;;2.20;;
34278;SDS011;20538;51.528;9.942;2023-02-18T01:00:51;13.63;;;2.13;;
34278;SDS011;20538;51.528;9.942;2023-02-18T01:03:17;18.33;;;2.83;;
34278;SDS011;20538;51.528;9.942;2023-02-18T01:05:43;10.50;;;2.60;;
34278;SDS011;20538;51.528;9.942;2023-02-18T01:08:09;11.02;;;2.00;;
34278;SDS011;20538;51.528;9.942;2023-02-18T01:10:36;9.18;;;2.35;;
34278;SDS011;20538;51.528;9.942;2023-02-18T01:13:06;9.43;;;2.40;;
34278;SDS011;20538;51.528;9.942;2023-02-18T01:15:31;13.25;;;2.92;;
34278;SDS011;20538;51.528;9.942;2023-02-18T01:17:57;9.10;;;2.55;;
34278;SDS011;20538;51.528;9.942;2023-02-18T01:20:23;12.32;;;2.42;;
34278;SDS011;20538;51.528;9.942;2023-02-18T01:22:48;12.63;;;2.97;;
34278;SDS011;20538;51.528;9.942;2023-02-18T01:25:14;12.77;;;2.85;;
34278;SDS011;20538;51.528;9.942;2023-02-18T01:27:40;15.13;;;3.10;;
34278;SDS011;20538;51.528;9.942;2023-02-18T01:30:07;18.52;;;3.95;;
34278;SDS011;20538;51.528;9.942;2023-02-18T01:32:34;11.52;;;3.25;;
34278;SDS011;20538;51.528;9.942;2023-02-18T01:35:00;11.15;;;2.70;;
34278;SDS011;20538;51.528;9.942;2023-02-18T01:37:30;13.80;;;3.35;;
34278;SDS011;20538;51.528;9.942;2023-02-18T01:39:56;9.55;;;2.95;;
34278;SDS011;20538;51.528;9.942;2023-02-18T01:42:23;10.82;;;3.03;;
34278;SDS011;20538;51.528;9.942;2023-02-18T01:44:50;13.18;;;3.75;;
34278;SDS011;20538;51.528;9.942;2023-02-18T01:47:16;18.15;;;4.10;;
34278;SDS011;20538;51.528;9.942;2023-02-18T01:49:43;16.98;;;3.28;;
34278;SDS011;20538;51.528;9.942;2023-02-18T01:52:21;12.82;;;3.40;;
34278;SDS011;20538;51.528;9.942;2023-02-18T01:54:51;13.55;;;3.78;;
34278;SDS011;20538;51.528;9.942;2023-02-18T01:57:24;13.38;;;4.18;;
34278;SDS011;20538;51.528;9.942;2023-02-18T01:59:55;17.98;;;4.90;;
34278;SDS011;20538;51.528;9.942;2023-02-18T02:02:28;15.23;;;5.50;;
34278;SDS011;20538;51.528;9.942;2023-02-18T02:04:56;13.27;;;5.03;;
34278;SDS011;20538;51.528;9.942;2023-02-18T02:07:22;21.95;;;6.38;;
34278;SDS011;20538;51.528;9.942;2023-02-18T02:09:50;19.50;;;5.68;;
34278;SDS011;20538;51.528;9.942;2023-02-18T02:22:52;16.60;;;8.15;;
34278;SDS011;20538;51.528;9.942;2023-02-18T02:42:45;25.50;;;8.48;;
34278;SDS011;20538;51.528;9.942;2023-02-18T02:48:28;20.88;;;9.48;;
34278;SDS011;20538;51.528;9.942;2023-02-18T02:53:48;22.55;;;10.00;;
34278;SDS011;20538;51.528;9.942;2023-02-18T02:56:15;28.55;;;10.63;;
34278;SDS011;20538;51.528;9.942;2023-02-18T02:58:43;22.33;;;11.40;;
34278;SDS011;20538;51.528;9.942;2023-02-18T03:04:07;26.33;;;10.60;;
34278;SDS011;20538;51.528;9.942;2023-02-18T03:10:00;22.08;;;10.05;;
34278;SDS011;20538;51.528;9.942;2023-02-18T03:12:57;22.20;;;11.55;;
34278;SDS011;20538;51.528;9.942;2023-02-18T03:17:59;28.05;;;13.50;;
34278;SDS011;20538;51.528;9.942;2023-02-18T03:23:31;25.17;;;12.70;;
34278;SDS011;20538;51.528;9.942;2023-02-18T03:26:01;34.03;;;13.20;;
34278;SDS011;20538;51.528;9.942;2023-02-18T03:28:28;24.17;;;13.90;;
34278;SDS011;20538;51.528;9.942;2023-02-18T03:30:58;26.02;;;12.90;;
34278;SDS011;20538;51.528;9.942;2023-02-18T03:33:33;36.10;;;14.27;;
34278;SDS011;20538;51.528;9.942;2023-02-18T03:36:01;31.58;;;14.57;;
34278;SDS011;20538;51.528;9.942;2023-02-18T03:40:53;29.30;;;14.40;;
34278;SDS011;20538;51.528;9.942;2023-02-18T03:43:19;30.85;;;15.23;;
34278;SDS011;20538;51.528;9.942;2023-02-18T03:45:45;30.38;;;14.45;;
34278;SDS011;20538;51.528;9.942;2023-02-18T03:48:10;32.35;;;16.20;;
34278;SDS011;20538;51.528;9.942;2023-02-18T03:50:36;30.27;;;15.55;;
34278;SDS011;20538;51.528;9.942;2023-02-18T03:53:01;34.30;;;15.20;;
34278;SDS011;20538;51.528;9.942;2023-02-18T03:55:27;29.52;;;13.35;;
34278;SDS011;20538;51.528;9.942;2023-02-18T03:57:53;31.45;;;15.45;;
34278;SDS011;20538;51.528;9.942;2023-02-18T04:00:18;28.50;;;14.52;;
34278;SDS011;20538;51.528;9.942;2023-02-18T04:02:44;29.90;;;14.20;;
34278;SDS011;20538;51.528;9.942;2023-02-18T04:05:10;25.90;;;12.98;;
34278;SDS011;20538;51.528;9.942;2023-02-18T04:07:36;25.60;;;13.38;;
34278;SDS011;20538;51.528;9.942;2023-02-18T04:10:02;26.10;;;12.80;;
34278;SDS011;20538;51.528;9.942;2023-02-18T04:12:29;21.40;;;11.15;;
34278;SDS011;20538;51.528;9.942;2023-02-18T04:14:54;22.98;;;11.68;;
34278;SDS011;20538;51.528;9.942;2023-02-18T04:17:20;22.13;;;11.88;;
34278;SDS011;20538;51.528;9.942;2023-02-18T04:19:45;19.40;;;10.50;;
34278;SDS011;20538;51.528;9.942;2023-02-18T04:22:11;21.88;;;10.90;;
34278;SDS011;20538;51.528;9.942;2023-02-18T04:24:37;20.90;;;10.43;;
34278;SDS011;20538;51.528;9.942;2023-02-18T04:27:02;22.60;;;10.35;;
34278;SDS011;20538;51.528;9.942;2023-02-18T04:29:28;20.85;;;9.95;;
34278;SDS011;20538;51.528;9.942;2023-02-18T04:31:53;21.67;;;10.25;;
34278;SDS011;20538;51.528;9.942;2023-02-18T04:34:19;18.10;;;10.45;;
34278;SDS011;20538;51.528;9.942;2023-02-18T04:36:45;19.45;;;10.02;;
34278;SDS011;20538;51.528;9.942;2023-02-18T04:39:10;19.60;;;10.52;;
34278;SDS011;20538;51.528;9.942;2023-02-18T04:41:36;20.35;;;10.75;;
34278;SDS011;20538;51.528;9.942;2023-02-18T04:44:02;21.10;;;11.02;;
34278;SDS011;20538;51.528;9.942;2023-02-18T04:46:27;19.23;;;11.38;;
34278;SDS011;20538;51.528;9.942;2023-02-18T04:48:53;19.25;;;10.32;;
34278;SDS011;20538;51.528;9.942;2023-02-18T04:51:19;21.90;;;10.93;;
34278;SDS011;20538;51.528;9.942;2023-02-18T04:53:45;19.65;;;11.18;;
34278;SDS011;20538;51.528;9.942;2023-02-18T04:56:10;22.25;;;11.40;;
34278;SDS011;20538;51.528;9.942;2023-02-18T04:58:36;21.92;;;11.98;;
34278;SDS011;20538;51.528;9.942;2023-02-18T05:01:02;25.88;;;12.77;;
34278;SDS011;20538;51.528;9.942;2023-02-18T05:03:29;23.52;;;12.35;;
34278;SDS011;20538;51.528;9.942;2023-02-18T05:05:54;25.15;;;13.52;;
34278;SDS011;20538;51.528;9.942;2023-02-18T05:08:20;23.25;;;13.43;;
34278;SDS011;20538;51.528;9.942;2023-02-18T05:10:46;24.27;;;14.32;;
34278;SDS011;20538;51.528;9.942;2023-02-18T05:13:12;24.27;;;12.38;;
34278;SDS011;20538;51.528;9.942;2023-02-18T05:15:37;23.63;;;12.10;;
34278;SDS011;20538;51.528;9.942;2023-02-18T05:18:03;24.20;;;13.45;;
34278;SDS011;20538;51.528;9.942;2023-02-18T05:20:29;20.65;;;11.25;;
34278;SDS011;20538;51.528;9.942;2023-02-18T05:22:54;19.73;;;11.00;;
34278;SDS011;20538;51.528;9.942;2023-02-18T05:25:20;20.95;;;11.20;;
34278;SDS011;20538;51.528;9.942;2023-02-18T05:27:46;20.30;;;10.73;;
34278;SDS011;20538;51.528;9.942;2023-02-18T05:30:11;17.48;;;9.75;;
34278;SDS011;20538;51.528;9.942;2023-02-18T05:32:37;19.85;;;11.40;;
34278;SDS011;20538;51.528;9.942;2023-02-18T05:35:05;18.10;;;10.27;;
34278;SDS011;20538;51.528;9.942;2023-02-18T05:37:31;18.40;;;10.35;;
34278;SDS011;20538;51.528;9.942;2023-02-18T05:39:56;19.45;;;10.73;;
34278;SDS011;20538;51.528;9.942;2023-02-18T05:42:22;16.38;;;10.10;;
34278;SDS011;20538;51.528;9.942;2023-02-18T05:44:48;20.73;;;10.07;;
34278;SDS011;20538;51.528;9.942;2023-02-18T05:47:13;16.45;;;9.40;;
34278;SDS011;20538;51.528;9.942;2023-02-18T05:49:40;19.08;;;10.00;;
34278;SDS011;20538;51.528;9.942;2023-02-18T05:52:06;20.80;;;9.30;;
34278;SDS011;20538;51.528;9.942;2023-02-18T05:54:33;16.95;;;9.93;;
34278;SDS011;20538;51.528;9.942;2023-02-18T05:56:59;16.70;;;9.70;;
34278;SDS011;20538;51.528;9.942;2023-02-18T05:59:25;16.48;;;8.27;;
34278;SDS011;20538;51.528;9.942;2023-02-18T06:01:51;15.35;;;9.25;;
34278;SDS011;20538;51.528;9.942;2023-02-18T06:04:17;16.50;;;9.00;;
34278;SDS011;20538;51.528;9.942;2023-02-18T06:06:43;17.40;;;9.02;;
34278;SDS011;20538;51.528;9.942;2023-02-18T06:09:09;18.77;;;10.25;;
34278;SDS011;20538;51.528;9.942;2023-02-18T06:11:35;15.38;;;9.18;;
34278;SDS011;20538;51.528;9.942;2023-02-18T06:14:01;16.33;;;8.07;;
34278;SDS011;20538;51.528;9.942;2023-02-18T06:16:27;16.25;;;9.32;;
34278;SDS011;20538;51.528;9.942;2023-02-18T06:18:53;16.95;;;8.45;;
34278;SDS011;20538;51.528;9.942;2023-02-18T06:21:19;17.98;;;8.90;;
34278;SDS011;20538;51.528;9.942;2023-02-18T06:23:44;16.05;;;9.45;;
34278;SDS011;20538;51.528;9.942;2023-02-18T06:26:10;15.68;;;9.63;;
34278;SDS011;20538;51.528;9.942;2023-02-18T06:28:36;19.65;;;10.38;;
34278;SDS011;20538;51.528;9.942;2023-02-18T06:31:02;16.88;;;9.43;;
34278;SDS011;20538;51.528;9.942;2023-02-18T06:33:28;17.25;;;9.75;;
34278;SDS011;20538;51.528;9.942;2023-02-18T06:36:01;19.52;;;10.57;;
34278;SDS011;20538;51.528;9.942;2023-02-18T06:38:31;21.77;;;11.15;;
34278;SDS011;20538;51.528;9.942;2023-02-18T06:40:58;21.55;;;11.05;;
34278;SDS011;20538;51.528;9.942;2023-02-18T06:43:23;19.80;;;10.68;;
34278;SDS011;20538;51.528;9.942;2023-02-18T06:45:49;18.48;;;9.82;;
34278;SDS011;20538;51.528;9.942;2023-02-18T06:48:15;19.95;;;11.15;;
34278;SDS011;20538;51.528;9.942;2023-02-18T06:50:41;18.38;;;9.90;;
34278;SDS011;20538;51.528;9.942;2023-02-18T06:53:07;22.73;;;12.63;;
34278;SDS011;20538;51.528;9.942;2023-02-18T06:55:33;21.05;;;10.93;;
34278;SDS011;20538;51.528;9.942;2023-02-18T06:58:01;21.27;;;10.98;;
34278;SDS011;20538;51.528;9.942;2023-02-18T07:00:26;15.63;;;9.90;;
34278;SDS011;20538;51.528;9.942;2023-02-18T07:02:52;20.08;;;9.82;;
34278;SDS011;20538;51.528;9.942;2023-02-18T07:05:18;18.52;;;9.68;;
34278;SDS011;20538;51.528;9.942;2023-02-18T07:07:43;18.02;;;9.65;;
34278;SDS011;20538;51.528;9.942;2023-02-18T07:10:09;12.80;;;7.93;;
34278;SDS011;20538;51.528;9.942;2023-02-18T07:12:35;14.80;;;8.05;;
34278;SDS011;20538;51.528;9.942;2023-02-18T07:15:00;10.10;;;6.35;;
34278;SDS011;20538;51.528;9.942;2023-02-18T07:17:26;14.45;;;6.47;;
34278;SDS011;20538;51.528;9.942;2023-02-18T07:19:52;10.23;;;5.45;;
34278;SDS011;20538;51.528;9.942;2023-02-18T07:22:19;9.43;;;5.40;;
34278;SDS011;20538;51.528;9.942;2023-02-18T07:24:45;7.32;;;4.70;;
34278;SDS011;20538;51.528;9.942;2023-02-18T07:27:14;6.70;;;4.32;;
34278;SDS011;20538;51.528;9.942;2023-02-18T07:29:40;6.28;;;4.00;;
34278;SDS011;20538;51.528;9.942;2023-02-18T07:32:06;6.25;;;3.70;;
34278;SDS011;20538;51.528;9.942;2023-02-18T07:34:32;5.25;;;3.47;;
34278;SDS011;20538;51.528;9.942;2023-02-18T07:36:58;3.63;;;2.33;;
34278;SDS011;20538;51.528;9.942;2023-02-18T07:39:29;5.32;;;3.03;;
34278;SDS011;20538;51.528;9.942;2023-02-18T07:41:54;3.10;;;2.00;;
34278;SDS011;20538;51.528;9.942;2023-02-18T07:44:20;3.00;;;2.35;;
34278;SDS011;20538;51.528;9.942;2023-02-18T07:46:46;3.58;;;1.88;;
34278;SDS011;20538;51.528;9.942;2023-02-18T07:49:11;3.00;;;2.00;;
34278;SDS011;20538;51.528;9.942;2023-02-18T07:51:37;2.55;;;1.80;;
34278;SDS011;20538;51.528;9.942;2023-02-18T07:54:04;2.45;;;1.73;;
34278;SDS011;20538;51.528;9.942;2023-02-18T07:56:29;2.55;;;2.35;;
34278;SDS011;20538;51.528;9.942;2023-02-18T07:58:55;4.40;;;2.72;;
34278;SDS011;20538;51.528;9.942;2023-02-18T08:01:21;2.88;;;1.67;;
34278;SDS011;20538;51.528;9.942;2023-02-18T08:03:46;1.70;;;1.50;;
34278;SDS011;20538;51.528;9.942;2023-02-18T08:06:18;1.70;;;1.10;;
34278;SDS011;20538;51.528;9.942;2023-02-18T08:08:46;3.08;;;1.60;;
34278;SDS011;20538;51.528;9.942;2023-02-18T08:11:12;3.47;;;1.40;;
34278;SDS011;20538;51.528;9.942;2023-02-18T08:13:37;3.50;;;1.05;;
34278;SDS011;20538;51.528;9.942;2023-02-18T08:16:03;1.20;;;1.10;;
34278;SDS011;20538;51.528;9.942;2023-02-18T08:18:29;1.45;;;1.05;;
34278;SDS011;20538;51.528;9.942;2023-02-18T08:20:54;1.35;;;1.05;;
34278;SDS011;20538;51.528;9.942;2023-02-18T08:23:20;3.00;;;0.95;;
34278;SDS011;20538;51.528;9.942;2023-02-18T08:25:50;1.10;;;1.00;;
34278;SDS011;20538;51.528;9.942;2023-02-18T08:28:18;1.50;;;0.90;;
34278;SDS011;20538;51.528;9.942;2023-02-18T08:30:45;4.38;;;1.90;;
34278;SDS011;20538;51.528;9.942;2023-02-18T08:33:11;1.08;;;0.90;;
34278;SDS011;20538;51.528;9.942;2023-02-18T08:35:37;2.13;;;0.98;;
34278;SDS011;20538;51.528;9.942;2023-02-18T08:38:03;1.23;;;0.63;;
34278;SDS011;20538;51.528;9.942;2023-02-18T08:40:29;1.38;;;1.05;;
34278;SDS011;20538;51.528;9.942;2023-02-18T08:42:55;2.25;;;0.82;;
34278;SDS011;20538;51.528;9.942;2023-02-18T08:45:20;0.60;;;0.60;;
34278;SDS011;20538;51.528;9.942;2023-02-18T08:47:46;0.90;;;0.40;;
34278;SDS011;20538;51.528;9.942;2023-02-18T08:50:12;0.75;;;0.55;;
34278;SDS011;20538;51.528;9.942;2023-02-18T08:52:37;0.50;;;0.50;;
34278;SDS011;20538;51.528;9.942;2023-02-18T08:55:03;1.98;;;0.70;;
34278;SDS011;20538;51.528;9.942;2023-02-18T08:57:30;1.42;;;0.50;;
34278;SDS011;20538;51.528;9.942;2023-02-18T08:59:55;2.05;;;0.60;;
34278;SDS011;20538;51.528;9.942;2023-02-18T09:02:21;1.30;;;0.50;;
34278;SDS011;20538;51.528;9.942;2023-02-18T09:04:47;0.73;;;0.63;;
34278;SDS011;20538;51.528;9.942;2023-02-18T09:07:12;0.80;;;0.50;;
34278;SDS011;20538;51.528;9.942;2023-02-18T09:09:38;1.90;;;0.40;;
34278;SDS011;20538;51.528;9.942;2023-02-18T09:12:04;0.77;;;0.60;;
34278;SDS011;20538;51.528;9.942;2023-02-18T09:14:30;0.68;;;0.60;;
34278;SDS011;20538;51.528;9.942;2023-02-18T09:16:56;1.17;;;0.40;;
34278;SDS011;20538;51.528;9.942;2023-02-18T09:19:22;2.28;;;0.50;;
34278;SDS011;20538;51.528;9.942;2023-02-18T09:21:48;0.35;;;0.30;;
34278;SDS011;20538;51.528;9.942;2023-02-18T09:24:17;0.43;;;0.40;;
34278;SDS011;20538;51.528;9.942;2023-02-18T09:26:43;0.68;;;0.30;;
34278;SDS011;20538;51.528;9.942;2023-02-18T09:29:08;0.65;;;0.30;;
34278;SDS011;20538;51.528;9.942;2023-02-18T09:31:34;1.52;;;0.50;;
34278;SDS011;20538;51.528;9.942;2023-02-18T09:34:01;0.40;;;0.40;;
34278;SDS011;20538;51.528;9.942;2023-02-18T09:36:27;0.40;;;0.30;;
34278;SDS011;20538;51.528;9.942;2023-02-18T09:38:54;1.13;;;0.40;;
34278;SDS011;20538;51.528;9.942;2023-02-18T09:41:35;2.60;;;0.68;;
34278;SDS011;20538;51.528;9.942;2023-02-18T09:44:27;1.25;;;0.50;;
34278;SDS011;20538;51.528;9.942;2023-02-18T09:47:22;0.80;;;0.47;;
34278;SDS011;20538;51.528;9.942;2023-02-18T09:50:26;0.43;;;0.43;;
34278;SDS011;20538;51.528;9.942;2023-02-18T09:52:53;1.35;;;0.80;;
34278;SDS011;20538;51.528;9.942;2023-02-18T09:55:24;1.75;;;1.02;;
34278;SDS011;20538;51.528;9.942;2023-02-18T09:57:54;0.63;;;0.40;;
34278;SDS011;20538;51.528;9.942;2023-02-18T10:00:26;2.10;;;1.23;;
34278;SDS011;20538;51.528;9.942;2023-02-18T10:05:24;0.82;;;0.70;;
34278;SDS011;20538;51.528;9.942;2023-02-18T10:07:52;1.88;;;0.80;;
34278;SDS011;20538;51.528;9.942;2023-02-18T10:10:42;2.20;;;0.70;;
34278;SDS011;20538;51.528;9.942;2023-02-18T10:13:19;1.08;;;0.70;;
34278;SDS011;20538;51.528;9.942;2023-02-18T10:15:50;1.05;;;0.57;;
34278;SDS011;20538;51.528;9.942;2023-02-18T10:21:00;0.82;;;0.50;;
34278;SDS011;20538;51.528;9.942;2023-02-18T10:23:37;1.83;;;0.60;;
34278;SDS011;20538;51.528;9.942;2023-02-18T10:26:13;1.77;;;0.55;;
34278;SDS011;20538;51.528;9.942;2023-02-18T10:28:41;1.65;;;0.63;;
34278;SDS011;20538;51.528;9.942;2023-02-18T10:31:08;2.25;;;1.25;;
34278;SDS011;20538;51.528;9.942;2023-02-18T10:39:37;1.20;;;0.63;;
34278;SDS011;20538;51.528;9.942;2023-02-18T10:42:18;0.82;;;0.40;;
34278;SDS011;20538;51.528;9.942;2023-02-18T10:45:16;0.57;;;0.50;;
34278;SDS011;20538;51.528;9.942;2023-02-18T10:52:46;0.60;;;0.40;;
34278;SDS011;20538;51.528;9.942;2023-02-18T10:55:16;1.85;;;0.50;;
34278;SDS011;20538;51.528;9.942;2023-02-18T10:57:47;1.33;;;0.30;;
34278;SDS011;20538;51.528;9.942;2023-02-18T11:00:16;0.43;;;0.35;;
34278;SDS011;20538;51.528;9.942;2023-02-18T11:03:00;1.33;;;0.70;;
34278;SDS011;20538;51.528;9.942;2023-02-18T11:05:26;0.40;;;0.40;;
34278;SDS011;20538;51.528;9.942;2023-02-18T11:07:53;2.92;;;0.40;;
34278;SDS011;20538;51.528;9.942;2023-02-18T11:10:25;0.85;;;0.55;;
34278;SDS011;20538;51.528;9.942;2023-02-18T11:13:02;0.75;;;0.60;;
34278;SDS011;20538;51.528;9.942;2023-02-18T11:15:31;2.45;;;0.60;;
34278;SDS011;20538;51.528;9.942;2023-02-18T11:18:43;0.77;;;0.50;;
34278;SDS011;20538;51.528;9.942;2023-02-18T11:21:01;1.17;;;0.85;;
34278;SDS011;20538;51.528;9.942;2023-02-18T11:23:29;0.95;;;0.90;;
34278;SDS011;20538;51.528;9.942;2023-02-18T11:25:56;0.60;;;0.60;;
34278;SDS011;20538;51.528;9.942;2023-02-18T11:31:15;2.05;;;0.60;;
34278;SDS011;20538;51.528;9.942;2023-02-18T11:33:50;2.70;;;0.80;;
34278;SDS011;20538;51.528;9.942;2023-02-18T11:38:56;1.40;;;0.80;;
34278;SDS011;20538;51.528;9.942;2023-02-18T11:41:32;1.10;;;0.88;;
34278;SDS011;20538;51.528;9.942;2023-02-18T11:44:03;1.02;;;0.60;;
34278;SDS011;20538;51.528;9.942;2023-02-18T11:46:32;1.52;;;1.23;;
34278;SDS011;20538;51.528;9.942;2023-02-18T11:49:19;2.63;;;0.88;;
34278;SDS011;20538;51.528;9.942;2023-02-18T11:51:47;0.60;;;0.60;;
34278;SDS011;20538;51.528;9.942;2023-02-18T11:57:20;2.78;;;1.00;;
34278;SDS011;20538;51.528;9.942;2023-02-18T11:59:40;1.83;;;1.08;;
34278;SDS011;20538;51.528;9.942;2023-02-18T12:04:39;0.80;;;0.80;;
34278;SDS011;20538;51.528;9.942;2023-02-18T12:07:14;3.58;;;0.90;;
34278;SDS011;20538;51.528;9.942;2023-02-18T12:09:51;1.50;;;1.00;;
34278;SDS011;20538;51.528;9.942;2023-02-18T12:12:31;1.70;;;0.93;;
34278;SDS011;20538;51.528;9.942;2023-02-18T12:15:15;1.77;;;1.13;;
34278;SDS011;20538;51.528;9.942;2023-02-18T12:18:01;2.15;;;1.15;;
34278;SDS011;20538;51.528;9.942;2023-02-18T12:20:48;3.00;;;1.30;;
34278;SDS011;20538;51.528;9.942;2023-02-18T12:26:21;1.75;;;1.20;;
34278;SDS011;20538;51.528;9.942;2023-02-18T12:37:08;2.58;;;1.00;;
34278;SDS011;20538;51.528;9.942;2023-02-18T12:40:25;2.50;;;1.23;;
34278;SDS011;20538;51.528;9.942;2023-02-18T12:42:56;3.50;;;0.90;;
34278;SDS011;20538;51.528;9.942;2023-02-18T12:51:41;2.80;;;0.93;;
34278;SDS011;20538;51.528;9.942;2023-02-18T12:57:26;1.70;;;0.90;;
34278;SDS011;20538;51.528;9.942;2023-02-18T13:13:44;1.98;;;1.33;;
34278;SDS011;20538;51.528;9.942;2023-02-18T13:16:30;0.88;;;0.85;;
34278;SDS011;20538;51.528;9.942;2023-02-18T13:19:02;2.30;;;1.20;;
34278;SDS011;20538;51.528;9.942;2023-02-18T13:21:51;1.67;;;1.05;;
34278;SDS011;20538;51.528;9.942;2023-02-18T13:24:41;1.92;;;1.08;;
34278;SDS011;20538;51.528;9.942;2023-02-18T13:27:14;2.80;;;0.98;;
34278;SDS011;20538;51.528;9.942;2023-02-18T13:32:45;4.25;;;0.95;;
34278;SDS011;20538;51.528;9.942;2023-02-18T13:35:24;3.03;;;0.93;;
34278;SDS011;20538;51.528;9.942;2023-02-18T13:40:39;2.05;;;0.60;;
34278;SDS011;20538;51.528;9.942;2023-02-18T13:46:04;2.47;;;1.33;;
34278;SDS011;20538;51.528;9.942;2023-02-18T13:51:17;4.20;;;1.20;;
34278;SDS011;20538;51.528;9.942;2023-02-18T13:53:55;1.00;;;0.90;;
34278;SDS011;20538;51.528;9.942;2023-02-18T13:56:27;2.72;;;0.80;;
34278;SDS011;20538;51.528;9.942;2023-02-18T14:10:42;2.08;;;0.85;;
34278;SDS011;20538;51.528;9.942;2023-02-18T14:12:59;1.30;;;0.70;;
34278;SDS011;20538;51.528;9.942;2023-02-18T14:20:27;3.42;;;0.90;;
34278;SDS011;20538;51.528;9.942;2023-02-18T14:23:12;1.15;;;0.65;;
34278;SDS011;20538;51.528;9.942;2023-02-18T14:28:44;0.93;;;0.70;;
34278;SDS011;20538;51.528;9.942;2023-02-18T14:34:06;0.97;;;0.70;;
34278;SDS011;20538;51.528;9.942;2023-02-18T14:48:40;1.92;;;0.80;;
34278;SDS011;20538;51.528;9.942;2023-02-18T14:51:25;1.40;;;1.00;;
34278;SDS011;20538;51.528;9.942;2023-02-18T14:53:55;1.23;;;0.82;;
34278;SDS011;20538;51.528;9.942;2023-02-18T14:56:26;1.52;;;1.05;;
34278;SDS011;20538;51.528;9.942;2023-02-18T14:58:55;3.90;;;1.75;;
34278;SDS011;20538;51.528;9.942;2023-02-18T15:01:28;2.42;;;1.50;;
34278;SDS011;20538;51.528;9.942;2023-02-18T15:03:55;2.67;;;1.40;;
34278;SDS011;20538;51.528;9.942;2023-02-18T15:06:26;3.35;;;1.85;;
34278;SDS011;20538;51.528;9.942;2023-02-18T15:08:56;3.55;;;1.80;;
34278;SDS011;20538;51.528;9.942;2023-02-18T15:11:24;4.05;;;1.83;;
34278;SDS011;20538;51.528;9.942;2023-02-18T15:13:59;3.55;;;1.95;;
34278;SDS011;20538;51.528;9.942;2023-02-18T15:16:27;3.03;;;1.73;;
34278;SDS011;20538;51.528;9.942;2023-02-18T15:18:56;3.03;;;2.33;;
34278;SDS011;20538;51.528;9.942;2023-02-18T15:21:31;4.53;;;1.67;;
34278;SDS011;20538;51.528;9.942;2023-02-18T15:24:04;4.47;;;2.03;;
34278;SDS011;20538;51.528;9.942;2023-02-18T15:26:30;4.70;;;2.00;;
34278;SDS011;20538;51.528;9.942;2023-02-18T15:29:00;6.15;;;2.35;;
34278;SDS011;20538;51.528;9.942;2023-02-18T15:31:30;3.08;;;2.20;;
34278;SDS011;20538;51.528;9.942;2023-02-18T15:34:00;3.15;;;1.88;;
34278;SDS011;20538;51.528;9.942;2023-02-18T15:36:26;3.05;;;2.28;;
34278;SDS011;20538;51.528;9.942;2023-02-18T15:38:52;4.50;;;2.13;;
34278;SDS011;20538;51.528;9.942;2023-02-18T15:41:20;3.30;;;2.10;;
34278;SDS011;20538;51.528;9.942;2023-02-18T15:43:53;3.35;;;1.98;;
34278;SDS011;20538;51.528;9.942;2023-02-18T15:46:23;3.13;;;2.08;;
34278;SDS011;20538;51.528;9.942;2023-02-18T15:48:50;4.18;;;1.95;;
34278;SDS011;20538;51.528;9.942;2023-02-18T15:51:18;3.38;;;1.95;;
34278;SDS011;20538;51.528;9.942;2023-02-18T15:53:47;3.72;;;1.98;;
34278;SDS011;20538;51.528;9.942;2023-02-18T15:56:28;2.88;;;1.55;;
34278;SDS011;20538;51.528;9.942;2023-02-18T16:01:53;2.30;;;1.40;;
34278;SDS011;20538;51.528;9.942;2023-02-18T16:04:22;2.55;;;1.48;;
34278;SDS011;20538;51.528;9.942;2023-02-18T16:06:53;2.97;;;1.73;;
34278;SDS011;20538;51.528;9.942;2023-02-18T16:12:04;2.15;;;1.35;;
34278;SDS011;20538;51.528;9.942;2023-02-18T16:19:45;4.30;;;2.05;;
34278;SDS011;20538;51.528;9.942;2023-02-18T16:22:26;1.95;;;1.35;;
34278;SDS011;20538;51.528;9.942;2023-02-18T16:25:07;1.80;;;1.40;;
34278;SDS011;20538;51.528;9.942;2023-02-18T16:27:48;1.63;;;1.15;;
34278;SDS011;20538;51.528;9.942;2023-02-18T16:30:21;1.45;;;1.10;;
34278;SDS011;20538;51.528;9.942;2023-02-18T16:32:48;2.60;;;1.30;;
34278;SDS011;20538;51.528;9.942;2023-02-18T16:35:14;1.85;;;1.20;;
34278;SDS011;20538;51.528;9.942;2023-02-18T16:37:40;3.60;;;1.70;;
34278;SDS011;20538;51.528;9.942;2023-02-18T16:40:24;2.28;;;1.10;;
34278;SDS011;20538;51.528;9.942;2023-02-18T16:42:53;1.50;;;1.20;;
34278;SDS011;20538;51.528;9.942;2023-02-18T16:45:20;5.15;;;1.95;;
34278;SDS011;20538;51.528;9.942;2023-02-18T16:47:55;4.75;;;1.70;;
34278;SDS011;20538;51.528;9.942;2023-02-18T16:50:21;3.22;;;1.77;;
34278;SDS011;20538;51.528;9.942;2023-02-18T16:52:47;6.10;;;2.08;;
34278;SDS011;20538;51.528;9.942;2023-02-18T16:55:17;2.80;;;1.85;;
34278;SDS011;20538;51.528;9.942;2023-02-18T16:57:45;2.13;;;1.73;;
34278;SDS011;20538;51.528;9.942;2023-02-18T17:00:11;3.25;;;2.15;;
34278;SDS011;20538;51.528;9.942;2023-02-18T17:02:37;5.20;;;2.08;;
34278;SDS011;20538;51.528;9.942;2023-02-18T17:05:04;5.20;;;1.95;;
34278;SDS011;20538;51.528;9.942;2023-02-18T17:07:29;2.38;;;1.50;;
34278;SDS011;20538;51.528;9.942;2023-02-18T17:09:57;4.18;;;1.80;;
34278;SDS011;20538;51.528;9.942;2023-02-18T17:12:23;4.05;;;1.65;;
34278;SDS011;20538;51.528;9.942;2023-02-18T17:14:49;4.00;;;1.77;;
34278;SDS011;20538;51.528;9.942;2023-02-18T17:17:15;3.65;;;1.63;;
34278;SDS011;20538;51.528;9.942;2023-02-18T17:19:46;6.78;;;2.00;;
34278;SDS011;20538;51.528;9.942;2023-02-18T17:22:12;7.32;;;2.30;;
34278;SDS011;20538;51.528;9.942;2023-02-18T17:24:38;5.63;;;2.58;;
34278;SDS011;20538;51.528;9.942;2023-02-18T17:27:04;5.22;;;2.80;;
34278;SDS011;20538;51.528;9.942;2023-02-18T17:29:29;5.75;;;2.75;;
34278;SDS011;20538;51.528;9.942;2023-02-18T17:31:55;6.35;;;3.72;;
34278;SDS011;20538;51.528;9.942;2023-02-18T17:34:26;7.72;;;4.25;;
34278;SDS011;20538;51.528;9.942;2023-02-18T17:36:53;12.35;;;5.00;;
34278;SDS011;20538;51.528;9.942;2023-02-18T17:39:18;13.40;;;5.82;;